KVBG/VBG METAR and TAF weather

Enter ICAO airport designator
Station Type Date Time Source
KVBG METAR 2021/05/14 13:43 UTC NOAA

KVBG 141343Z AUTO 05004KT 6SM BR OVC003 10/09 A3002 RMK AO2 SLP169


Station Type Date Time Source
KVBG Decoded METAR 2021/05/14 13:43 UTC NOAA

Lompoc, Vandenberg Air Force Base, CA, United States (KVBG) 34-43-46N 120-34-36W 121M
May 14, 2021 - 09:43 AM EDT / 2021.05.14 1343 UTC
Wind: from the NE (050 degrees) at 5 MPH (4 KT):0
Visibility: 6 mile(s):0
Sky conditions: overcast
Weather: mist
Temperature: 50 F (10 C)
Dew Point: 48 F (9 C)
Relative Humidity: 93%
Pressure (altimeter): 30.02 in. Hg (1016 hPa)
ob: KVBG 141343Z AUTO 05004KT 6SM BR OVC003 10/09 A3002 RMK AO2 SLP169
cycle: 13

Station Type Date Time Source
KVBG TAF 2021/05/13 23:33 UTC NOAA

TAF
AMD KVBG 132328Z 1323/1504 30009KT 9999 SCT013 QNH3006INS
BECMG 1400/1401 30009KT 9999 BKN010 QNH3006INS
BECMG 1402/1403 32009KT 6000 BR OVC005 QNH3005INS
BECMG 1408/1409 34006KT 3200 -DZ BR OVC004 QNH3002INS
BECMG 1416/1417 31009KT 4800 BR OVC008 QNH3004INS
BECMG 1419/1420 30012KT 9999 NSW BKN012 QNH3005INS
BECMG 1501/1502 32009KT 9999 OVC007 QNH3006INS TX14/1323Z TN10/1412Z LAST NO
AMDS AFT 1400 NEXT 1414

Example: see airport list